sensor_id;sensor_type;location;lat;lon;timestamp;temperature;humidity
9915;DHT22;4996;48.746;9.174;2023-06-19T00:01:18;25.10;79.30
9915;DHT22;4996;48.746;9.174;2023-06-19T00:03:43;25.00;79.50
9915;DHT22;4996;48.746;9.174;2023-06-19T00:06:09;25.00;79.60
9915;DHT22;4996;48.746;9.174;2023-06-19T00:08:34;25.00;79.70
9915;DHT22;4996;48.746;9.174;2023-06-19T00:11:01;25.00;79.80
9915;DHT22;4996;48.746;9.174;2023-06-19T00:13:27;25.00;80.40
9915;DHT22;4996;48.746;9.174;2023-06-19T00:15:53;25.00;80.50
9915;DHT22;4996;48.746;9.174;2023-06-19T00:18:18;24.90;80.50
9915;DHT22;4996;48.746;9.174;2023-06-19T00:20:45;24.90;81.20
9915;DHT22;4996;48.746;9.174;2023-06-19T00:23:11;24.80;81.30
9915;DHT22;4996;48.746;9.174;2023-06-19T00:25:42;24.80;81.90
9915;DHT22;4996;48.746;9.174;2023-06-19T00:28:09;24.80;82.70
9915;DHT22;4996;48.746;9.174;2023-06-19T00:30:37;24.70;82.40
9915;DHT22;4996;48.746;9.174;2023-06-19T00:33:04;24.70;82.50
9915;DHT22;4996;48.746;9.174;2023-06-19T00:35:30;24.70;82.50
9915;DHT22;4996;48.746;9.174;2023-06-19T00:37:55;24.70;82.60
9915;DHT22;4996;48.746;9.174;2023-06-19T00:40:32;24.70;82.80
9915;DHT22;4996;48.746;9.174;2023-06-19T00:42:58;24.70;83.20
9915;DHT22;4996;48.746;9.174;2023-06-19T00:45:24;24.60;83.20
9915;DHT22;4996;48.746;9.174;2023-06-19T00:47:51;24.60;83.50
9915;DHT22;4996;48.746;9.174;2023-06-19T00:50:17;24.60;83.90
9915;DHT22;4996;48.746;9.174;2023-06-19T00:52:43;24.60;84.40
9915;DHT22;4996;48.746;9.174;2023-06-19T00:55:09;24.60;84.80
9915;DHT22;4996;48.746;9.174;2023-06-19T00:57:36;24.60;85.20
9915;DHT22;4996;48.746;9.174;2023-06-19T01:00:02;24.60;85.50
9915;DHT22;4996;48.746;9.174;2023-06-19T01:02:32;24.60;86.00
9915;DHT22;4996;48.746;9.174;2023-06-19T01:04:57;24.50;86.30
9915;DHT22;4996;48.746;9.174;2023-06-19T01:07:36;24.40;86.60
9915;DHT22;4996;48.746;9.174;2023-06-19T01:10:08;24.50;87.10
9915;DHT22;4996;48.746;9.174;2023-06-19T01:12:38;24.50;87.20
9915;DHT22;4996;48.746;9.174;2023-06-19T01:15:06;24.50;87.50
9915;DHT22;4996;48.746;9.174;2023-06-19T01:17:33;24.50;87.70
9915;DHT22;4996;48.746;9.174;2023-06-19T01:20:00;24.40;88.30
9915;DHT22;4996;48.746;9.174;2023-06-19T01:22:31;24.40;87.70
9915;DHT22;4996;48.746;9.174;2023-06-19T01:24:57;24.10;87.20
9915;DHT22;4996;48.746;9.174;2023-06-19T01:27:24;24.00;86.80
9915;DHT22;4996;48.746;9.174;2023-06-19T01:29:51;24.10;86.60
9915;DHT22;4996;48.746;9.174;2023-06-19T01:32:22;24.20;86.60
9915;DHT22;4996;48.746;9.174;2023-06-19T01:34:52;24.30;86.60
9915;DHT22;4996;48.746;9.174;2023-06-19T01:37:19;24.30;86.60
9915;DHT22;4996;48.746;9.174;2023-06-19T01:39:45;24.40;86.90
9915;DHT22;4996;48.746;9.174;2023-06-19T01:42:12;24.30;87.30
9915;DHT22;4996;48.746;9.174;2023-06-19T01:44:38;24.30;87.70
9915;DHT22;4996;48.746;9.174;2023-06-19T01:47:11;24.20;88.90
9915;DHT22;4996;48.746;9.174;2023-06-19T01:49:37;24.10;90.10
9915;DHT22;4996;48.746;9.174;2023-06-19T01:52:04;24.00;90.40
9915;DHT22;4996;48.746;9.174;2023-06-19T01:54:29;24.00;90.70
9915;DHT22;4996;48.746;9.174;2023-06-19T01:56:56;24.00;90.70
9915;DHT22;4996;48.746;9.174;2023-06-19T01:59:21;24.00;90.90
9915;DHT22;4996;48.746;9.174;2023-06-19T02:01:47;24.00;91.10
9915;DHT22;4996;48.746;9.174;2023-06-19T02:04:12;23.90;91.20
9915;DHT22;4996;48.746;9.174;2023-06-19T02:06:38;23.90;91.70
9915;DHT22;4996;48.746;9.174;2023-06-19T02:09:03;23.90;91.60
9915;DHT22;4996;48.746;9.174;2023-06-19T02:11:29;23.90;91.80
9915;DHT22;4996;48.746;9.174;2023-06-19T02:13:54;23.90;92.00
9915;DHT22;4996;48.746;9.174;2023-06-19T02:16:20;23.90;92.30
9915;DHT22;4996;48.746;9.174;2023-06-19T02:18:45;23.90;92.80
9915;DHT22;4996;48.746;9.174;2023-06-19T02:21:11;23.70;93.50
9915;DHT22;4996;48.746;9.174;2023-06-19T02:23:36;23.70;93.80
9915;DHT22;4996;48.746;9.174;2023-06-19T02:26:02;23.70;94.40
9915;DHT22;4996;48.746;9.174;2023-06-19T02:28:28;23.80;95.00
9915;DHT22;4996;48.746;9.174;2023-06-19T02:30:54;23.70;95.60
9915;DHT22;4996;48.746;9.174;2023-06-19T02:33:20;23.60;96.40
9915;DHT22;4996;48.746;9.174;2023-06-19T02:35:45;23.60;97.50
9915;DHT22;4996;48.746;9.174;2023-06-19T02:38:11;23.60;98.40
9915;DHT22;4996;48.746;9.174;2023-06-19T02:40:38;23.70;99.20
9915;DHT22;4996;48.746;9.174;2023-06-19T02:43:04;23.70;99.90
9915;DHT22;4996;48.746;9.174;2023-06-19T02:45:29;23.80;99.90
9915;DHT22;4996;48.746;9.174;2023-06-19T02:47:55;23.60;99.90
9915;DHT22;4996;48.746;9.174;2023-06-19T02:50:20;23.70;99.90
9915;DHT22;4996;48.746;9.174;2023-06-19T02:52:46;23.60;99.90
9915;DHT22;4996;48.746;9.174;2023-06-19T02:55:11;23.60;99.90
9915;DHT22;4996;48.746;9.174;2023-06-19T02:57:37;23.60;99.90
9915;DHT22;4996;48.746;9.174;2023-06-19T03:00:03;23.70;99.90
9915;DHT22;4996;48.746;9.174;2023-06-19T03:02:31;23.60;99.90
9915;DHT22;4996;48.746;9.174;2023-06-19T03:04:56;23.60;99.90
9915;DHT22;4996;48.746;9.174;2023-06-19T03:07:22;23.50;99.90
9915;DHT22;4996;48.746;9.174;2023-06-19T03:09:47;23.50;99.90
9915;DHT22;4996;48.746;9.174;2023-06-19T03:12:13;23.50;99.90
9915;DHT22;4996;48.746;9.174;2023-06-19T03:14:38;23.40;99.90
9915;DHT22;4996;48.746;9.174;2023-06-19T03:17:05;23.30;99.90
9915;DHT22;4996;48.746;9.174;2023-06-19T03:19:31;23.30;99.90
9915;DHT22;4996;48.746;9.174;2023-06-19T03:21:56;23.30;99.90
9915;DHT22;4996;48.746;9.174;2023-06-19T03:24:22;23.30;99.90
9915;DHT22;4996;48.746;9.174;2023-06-19T03:26:47;23.10;99.90
9915;DHT22;4996;48.746;9.174;2023-06-19T03:29:13;23.20;99.90
9915;DHT22;4996;48.746;9.174;2023-06-19T03:31:38;23.10;99.90
9915;DHT22;4996;48.746;9.174;2023-06-19T03:34:05;23.10;99.90
9915;DHT22;4996;48.746;9.174;2023-06-19T03:36:30;23.10;99.90
9915;DHT22;4996;48.746;9.174;2023-06-19T03:38:56;23.00;99.90
9915;DHT22;4996;48.746;9.174;2023-06-19T03:41:21;23.00;99.90
9915;DHT22;4996;48.746;9.174;2023-06-19T03:43:47;22.70;99.90
9915;DHT22;4996;48.746;9.174;2023-06-19T03:46:12;22.60;99.90
9915;DHT22;4996;48.746;9.174;2023-06-19T03:48:38;22.70;99.90
9915;DHT22;4996;48.746;9.174;2023-06-19T03:51:03;22.70;99.90
9915;DHT22;4996;48.746;9.174;2023-06-19T03:53:29;22.60;99.90
9915;DHT22;4996;48.746;9.174;2023-06-19T03:55:55;22.60;99.90
9915;DHT22;4996;48.746;9.174;2023-06-19T03:58:20;22.60;99.90
9915;DHT22;4996;48.746;9.174;2023-06-19T04:00:46;22.50;99.90
9915;DHT22;4996;48.746;9.174;2023-06-19T04:03:11;22.50;99.90
9915;DHT22;4996;48.746;9.174;2023-06-19T04:05:37;22.50;99.90
9915;DHT22;4996;48.746;9.174;2023-06-19T04:08:04;22.50;99.90
9915;DHT22;4996;48.746;9.174;2023-06-19T04:10:29;22.60;99.90
9915;DHT22;4996;48.746;9.174;2023-06-19T04:12:55;22.40;99.90
9915;DHT22;4996;48.746;9.174;2023-06-19T04:15:21;22.20;99.90
9915;DHT22;4996;48.746;9.174;2023-06-19T04:17:47;22.10;99.90
9915;DHT22;4996;48.746;9.174;2023-06-19T04:20:12;22.20;99.90
9915;DHT22;4996;48.746;9.174;2023-06-19T04:22:39;22.20;99.90
9915;DHT22;4996;48.746;9.174;2023-06-19T04:25:06;22.20;99.90
9915;DHT22;4996;48.746;9.174;2023-06-19T04:27:32;22.30;99.90
9915;DHT22;4996;48.746;9.174;2023-06-19T04:29:58;22.30;99.90
9915;DHT22;4996;48.746;9.174;2023-06-19T04:32:23;22.10;99.90
9915;DHT22;4996;48.746;9.174;2023-06-19T04:34:49;22.10;99.90
9915;DHT22;4996;48.746;9.174;2023-06-19T04:37:15;22.10;99.90
9915;DHT22;4996;48.746;9.174;2023-06-19T04:39:44;22.10;99.90
9915;DHT22;4996;48.746;9.174;2023-06-19T04:42:10;22.00;99.90
9915;DHT22;4996;48.746;9.174;2023-06-19T04:44:35;21.80;99.90
9915;DHT22;4996;48.746;9.174;2023-06-19T04:47:01;21.90;99.90
9915;DHT22;4996;48.746;9.174;2023-06-19T04:49:30;22.00;99.90
9915;DHT22;4996;48.746;9.174;2023-06-19T04:51:56;21.90;99.90
9915;DHT22;4996;48.746;9.174;2023-06-19T04:54:22;22.10;99.90
9915;DHT22;4996;48.746;9.174;2023-06-19T04:56:48;22.10;99.90
9915;DHT22;4996;48.746;9.174;2023-06-19T04:59:13;22.20;99.90
9915;DHT22;4996;48.746;9.174;2023-06-19T05:01:43;22.30;99.90
9915;DHT22;4996;48.746;9.174;2023-06-19T05:04:09;22.40;99.90
9915;DHT22;4996;48.746;9.174;2023-06-19T05:06:36;22.50;99.90
9915;DHT22;4996;48.746;9.174;2023-06-19T05:09:02;22.60;99.90
9915;DHT22;4996;48.746;9.174;2023-06-19T05:11:27;22.50;99.90
9915;DHT22;4996;48.746;9.174;2023-06-19T05:13:53;22.50;99.90
9915;DHT22;4996;48.746;9.174;2023-06-19T05:16:18;22.60;99.90
9915;DHT22;4996;48.746;9.174;2023-06-19T05:18:45;22.70;99.90
9915;DHT22;4996;48.746;9.174;2023-06-19T05:21:10;22.50;99.90
9915;DHT22;4996;48.746;9.174;2023-06-19T05:23:36;22.60;99.90
9915;DHT22;4996;48.746;9.174;2023-06-19T05:26:03;22.40;99.90
9915;DHT22;4996;48.746;9.174;2023-06-19T05:28:29;22.20;99.90
9915;DHT22;4996;48.746;9.174;2023-06-19T05:30:54;22.20;99.90
9915;DHT22;4996;48.746;9.174;2023-06-19T05:33:20;22.30;99.90
9915;DHT22;4996;48.746;9.174;2023-06-19T05:35:45;22.30;99.90
9915;DHT22;4996;48.746;9.174;2023-06-19T05:38:17;22.40;99.90
9915;DHT22;4996;48.746;9.174;2023-06-19T05:40:43;22.40;99.90
9915;DHT22;4996;48.746;9.174;2023-06-19T05:43:09;22.50;99.90
9915;DHT22;4996;48.746;9.174;2023-06-19T05:45:34;22.60;99.90
9915;DHT22;4996;48.746;9.174;2023-06-19T05:48:00;22.70;99.90
9915;DHT22;4996;48.746;9.174;2023-06-19T05:50:25;22.80;99.90
9915;DHT22;4996;48.746;9.174;2023-06-19T05:52:51;22.80;99.90
9915;DHT22;4996;48.746;9.174;2023-06-19T05:55:16;22.80;99.90
9915;DHT22;4996;48.746;9.174;2023-06-19T05:57:42;23.00;99.90
9915;DHT22;4996;48.746;9.174;2023-06-19T06:00:08;22.90;99.90
9915;DHT22;4996;48.746;9.174;2023-06-19T06:02:39;22.90;99.90
9915;DHT22;4996;48.746;9.174;2023-06-19T06:05:05;22.90;99.90
9915;DHT22;4996;48.746;9.174;2023-06-19T06:07:31;23.10;99.90
9915;DHT22;4996;48.746;9.174;2023-06-19T06:09:56;23.30;99.90
9915;DHT22;4996;48.746;9.174;2023-06-19T06:12:22;23.40;99.90
9915;DHT22;4996;48.746;9.174;2023-06-19T06:14:47;23.50;99.90
9915;DHT22;4996;48.746;9.174;2023-06-19T06:17:13;23.50;99.90
9915;DHT22;4996;48.746;9.174;2023-06-19T06:19:38;23.60;99.90
9915;DHT22;4996;48.746;9.174;2023-06-19T06:22:04;23.50;99.90
9915;DHT22;4996;48.746;9.174;2023-06-19T06:24:30;23.60;99.90
9915;DHT22;4996;48.746;9.174;2023-06-19T06:26:55;23.60;99.90
9915;DHT22;4996;48.746;9.174;2023-06-19T06:29:21;23.80;99.90
9915;DHT22;4996;48.746;9.174;2023-06-19T06:31:47;23.90;99.90
9915;DHT22;4996;48.746;9.174;2023-06-19T06:34:13;24.00;99.90
9915;DHT22;4996;48.746;9.174;2023-06-19T06:36:38;24.10;99.90
9915;DHT22;4996;48.746;9.174;2023-06-19T06:39:05;24.10;99.90
9915;DHT22;4996;48.746;9.174;2023-06-19T06:41:31;24.10;99.90
9915;DHT22;4996;48.746;9.174;2023-06-19T06:43:57;24.30;99.90
9915;DHT22;4996;48.746;9.174;2023-06-19T06:46:22;24.30;99.90
9915;DHT22;4996;48.746;9.174;2023-06-19T06:48:49;24.40;99.90
9915;DHT22;4996;48.746;9.174;2023-06-19T06:51:15;24.30;99.90
9915;DHT22;4996;48.746;9.174;2023-06-19T06:53:40;24.30;99.90
9915;DHT22;4996;48.746;9.174;2023-06-19T06:56:06;24.40;99.90
9915;DHT22;4996;48.746;9.174;2023-06-19T06:58:31;24.40;99.90
9915;DHT22;4996;48.746;9.174;2023-06-19T07:00:57;24.60;99.90
9915;DHT22;4996;48.746;9.174;2023-06-19T07:03:22;24.60;99.90
9915;DHT22;4996;48.746;9.174;2023-06-19T07:05:48;24.70;99.90
9915;DHT22;4996;48.746;9.174;2023-06-19T07:08:14;24.80;99.90
9915;DHT22;4996;48.746;9.174;2023-06-19T07:10:39;24.70;99.90
9915;DHT22;4996;48.746;9.174;2023-06-19T07:13:05;24.80;99.90
9915;DHT22;4996;48.746;9.174;2023-06-19T07:15:31;24.70;99.90
9915;DHT22;4996;48.746;9.174;2023-06-19T07:17:56;24.80;99.90
9915;DHT22;4996;48.746;9.174;2023-06-19T07:20:22;24.70;99.90
9915;DHT22;4996;48.746;9.174;2023-06-19T07:22:50;24.90;99.90
9915;DHT22;4996;48.746;9.174;2023-06-19T07:25:16;24.90;99.90
9915;DHT22;4996;48.746;9.174;2023-06-19T07:27:42;24.80;99.90
9915;DHT22;4996;48.746;9.174;2023-06-19T07:30:08;24.50;99.90
9915;DHT22;4996;48.746;9.174;2023-06-19T07:32:34;24.60;99.90
9915;DHT22;4996;48.746;9.174;2023-06-19T07:35:00;24.90;99.90
9915;DHT22;4996;48.746;9.174;2023-06-19T07:37:25;25.00;99.90
9915;DHT22;4996;48.746;9.174;2023-06-19T07:39:52;25.30;99.90
9915;DHT22;4996;48.746;9.174;2023-06-19T07:42:18;25.20;99.90
9915;DHT22;4996;48.746;9.174;2023-06-19T07:44:44;25.30;99.90
9915;DHT22;4996;48.746;9.174;2023-06-19T07:47:10;25.40;99.90
9915;DHT22;4996;48.746;9.174;2023-06-19T07:49:36;25.70;99.90
9915;DHT22;4996;48.746;9.174;2023-06-19T07:52:03;25.80;99.90
9915;DHT22;4996;48.746;9.174;2023-06-19T07:54:29;25.90;99.90
9915;DHT22;4996;48.746;9.174;2023-06-19T07:56:54;26.10;99.90
9915;DHT22;4996;48.746;9.174;2023-06-19T07:59:20;26.50;99.90
9915;DHT22;4996;48.746;9.174;2023-06-19T08:01:45;26.60;99.90
9915;DHT22;4996;48.746;9.174;2023-06-19T08:04:11;26.70;99.90
9915;DHT22;4996;48.746;9.174;2023-06-19T08:06:37;26.70;99.90
9915;DHT22;4996;48.746;9.174;2023-06-19T08:09:03;26.60;99.90
9915;DHT22;4996;48.746;9.174;2023-06-19T08:11:28;26.60;99.90
9915;DHT22;4996;48.746;9.174;2023-06-19T08:13:54;26.40;99.90
9915;DHT22;4996;48.746;9.174;2023-06-19T08:16:20;26.20;99.90
9915;DHT22;4996;48.746;9.174;2023-06-19T08:18:46;26.40;99.90
9915;DHT22;4996;48.746;9.174;2023-06-19T08:21:12;26.60;99.90
9915;DHT22;4996;48.746;9.174;2023-06-19T08:23:38;26.70;99.90
9915;DHT22;4996;48.746;9.174;2023-06-19T08:26:04;26.60;99.90
9915;DHT22;4996;48.746;9.174;2023-06-19T08:28:33;26.70;99.90
9915;DHT22;4996;48.746;9.174;2023-06-19T08:30:59;26.80;99.90
9915;DHT22;4996;48.746;9.174;2023-06-19T08:33:24;26.90;99.90
9915;DHT22;4996;48.746;9.174;2023-06-19T08:35:50;27.00;99.90
9915;DHT22;4996;48.746;9.174;2023-06-19T08:38:15;27.10;99.90
9915;DHT22;4996;48.746;9.174;2023-06-19T08:40:42;27.00;99.90
9915;DHT22;4996;48.746;9.174;2023-06-19T08:43:08;26.70;99.90
9915;DHT22;4996;48.746;9.174;2023-06-19T08:45:34;26.80;99.90
9915;DHT22;4996;48.746;9.174;2023-06-19T08:48:02;26.50;99.90
9915;DHT22;4996;48.746;9.174;2023-06-19T08:50:32;26.70;99.90
9915;DHT22;4996;48.746;9.174;2023-06-19T08:52:58;26.80;99.90
9915;DHT22;4996;48.746;9.174;2023-06-19T08:55:23;26.70;99.90
9915;DHT22;4996;48.746;9.174;2023-06-19T08:57:50;26.90;99.90
9915;DHT22;4996;48.746;9.174;2023-06-19T09:00:28;27.10;99.90
9915;DHT22;4996;48.746;9.174;2023-06-19T09:03:00;27.40;99.90
9915;DHT22;4996;48.746;9.174;2023-06-19T09:05:29;27.90;99.90
9915;DHT22;4996;48.746;9.174;2023-06-19T09:07:57;28.40;99.90
9915;DHT22;4996;48.746;9.174;2023-06-19T09:10:23;28.60;99.90
9915;DHT22;4996;48.746;9.174;2023-06-19T09:13:04;29.20;99.90
9915;DHT22;4996;48.746;9.174;2023-06-19T09:15:35;29.40;98.70
9915;DHT22;4996;48.746;9.174;2023-06-19T09:18:06;29.50;98.60
9915;DHT22;4996;48.746;9.174;2023-06-19T09:20:33;29.30;97.40
9915;DHT22;4996;48.746;9.174;2023-06-19T09:22:59;29.80;96.70
9915;DHT22;4996;48.746;9.174;2023-06-19T09:25:25;30.00;96.20
9915;DHT22;4996;48.746;9.174;2023-06-19T09:27:53;30.40;95.80
9915;DHT22;4996;48.746;9.174;2023-06-19T09:30:19;30.70;94.40
9915;DHT22;4996;48.746;9.174;2023-06-19T09:32:44;30.20;93.80
9915;DHT22;4996;48.746;9.174;2023-06-19T09:35:10;30.10;93.70
9915;DHT22;4996;48.746;9.174;2023-06-19T09:37:37;29.70;93.90
9915;DHT22;4996;48.746;9.174;2023-06-19T09:40:04;29.80;94.10
9915;DHT22;4996;48.746;9.174;2023-06-19T09:42:37;29.70;93.80
9915;DHT22;4996;48.746;9.174;2023-06-19T09:45:08;29.20;94.10
9915;DHT22;4996;48.746;9.174;2023-06-19T09:47:39;28.90;94.70
9915;DHT22;4996;48.746;9.174;2023-06-19T09:50:06;28.90;94.50
9915;DHT22;4996;48.746;9.174;2023-06-19T09:52:32;28.90;95.10
9915;DHT22;4996;48.746;9.174;2023-06-19T09:55:04;28.70;95.80
9915;DHT22;4996;48.746;9.174;2023-06-19T09:57:31;28.90;95.90
9915;DHT22;4996;48.746;9.174;2023-06-19T09:59:58;29.10;95.40
9915;DHT22;4996;48.746;9.174;2023-06-19T10:02:26;29.40;95.30
9915;DHT22;4996;48.746;9.174;2023-06-19T10:04:54;29.70;95.10
9915;DHT22;4996;48.746;9.174;2023-06-19T10:07:25;30.30;94.60
9915;DHT22;4996;48.746;9.174;2023-06-19T10:10:02;30.80;94.30
9915;DHT22;4996;48.746;9.174;2023-06-19T10:12:58;31.20;94.60
9915;DHT22;4996;48.746;9.174;2023-06-19T10:15:26;31.20;93.80
9915;DHT22;4996;48.746;9.174;2023-06-19T10:18:01;30.50;94.20
9915;DHT22;4996;48.746;9.174;2023-06-19T10:23:14;30.10;94.80
9915;DHT22;4996;48.746;9.174;2023-06-19T10:25:44;30.30;94.80
9915;DHT22;4996;48.746;9.174;2023-06-19T10:28:39;30.00;94.60
9915;DHT22;4996;48.746;9.174;2023-06-19T10:31:07;30.40;94.60
9915;DHT22;4996;48.746;9.174;2023-06-19T10:33:38;30.50;94.40
9915;DHT22;4996;48.746;9.174;2023-06-19T10:36:17;30.60;93.70
9915;DHT22;4996;48.746;9.174;2023-06-19T10:38:43;30.60;93.80
9915;DHT22;4996;48.746;9.174;2023-06-19T10:41:19;30.80;93.40
9915;DHT22;4996;48.746;9.174;2023-06-19T10:44:04;30.70;93.10
9915;DHT22;4996;48.746;9.174;2023-06-19T10:46:32;30.60;93.70
9915;DHT22;4996;48.746;9.174;2023-06-19T10:48:59;30.40;93.50
9915;DHT22;4996;48.746;9.174;2023-06-19T10:51:27;30.50;94.20
9915;DHT22;4996;48.746;9.174;2023-06-19T10:53:55;30.30;94.80
9915;DHT22;4996;48.746;9.174;2023-06-19T10:56:22;30.00;95.00
9915;DHT22;4996;48.746;9.174;2023-06-19T10:58:48;29.80;95.60
9915;DHT22;4996;48.746;9.174;2023-06-19T11:01:13;29.50;95.60
9915;DHT22;4996;48.746;9.174;2023-06-19T11:03:39;29.50;96.20
9915;DHT22;4996;48.746;9.174;2023-06-19T11:06:05;29.50;96.50
9915;DHT22;4996;48.746;9.174;2023-06-19T11:08:30;29.50;97.10
9915;DHT22;4996;48.746;9.174;2023-06-19T11:10:56;29.80;96.70
9915;DHT22;4996;48.746;9.174;2023-06-19T11:13:21;29.70;96.50
9915;DHT22;4996;48.746;9.174;2023-06-19T11:15:48;29.60;97.00
9915;DHT22;4996;48.746;9.174;2023-06-19T11:18:17;30.00;96.50
9915;DHT22;4996;48.746;9.174;2023-06-19T11:20:48;30.40;96.10
9915;DHT22;4996;48.746;9.174;2023-06-19T11:23:16;30.80;95.20
9915;DHT22;4996;48.746;9.174;2023-06-19T11:25:42;31.10;94.90
9915;DHT22;4996;48.746;9.174;2023-06-19T11:28:15;31.40;94.80
9915;DHT22;4996;48.746;9.174;2023-06-19T11:30:43;31.80;94.10
9915;DHT22;4996;48.746;9.174;2023-06-19T11:33:21;31.90;93.90
9915;DHT22;4996;48.746;9.174;2023-06-19T11:35:51;31.80;94.30
9915;DHT22;4996;48.746;9.174;2023-06-19T11:38:25;32.30;93.10
9915;DHT22;4996;48.746;9.174;2023-06-19T11:40:51;32.30;92.70
9915;DHT22;4996;48.746;9.174;2023-06-19T11:43:27;32.50;92.00
9915;DHT22;4996;48.746;9.174;2023-06-19T11:45:53;32.50;92.40
9915;DHT22;4996;48.746;9.174;2023-06-19T11:48:23;32.90;92.20
9915;DHT22;4996;48.746;9.174;2023-06-19T11:50:49;33.00;91.30
9915;DHT22;4996;48.746;9.174;2023-06-19T11:53:14;33.10;90.80
9915;DHT22;4996;48.746;9.174;2023-06-19T11:55:41;33.30;90.70
9915;DHT22;4996;48.746;9.174;2023-06-19T11:58:06;33.30;90.10
9915;DHT22;4996;48.746;9.174;2023-06-19T12:00:32;33.00;90.70
9915;DHT22;4996;48.746;9.174;2023-06-19T12:02:57;33.00;90.60
9915;DHT22;4996;48.746;9.174;2023-06-19T12:05:24;33.10;90.20
9915;DHT22;4996;48.746;9.174;2023-06-19T12:07:49;32.90;90.40
9915;DHT22;4996;48.746;9.174;2023-06-19T12:10:15;33.00;90.60
9915;DHT22;4996;48.746;9.174;2023-06-19T12:12:41;33.20;90.20
9915;DHT22;4996;48.746;9.174;2023-06-19T12:15:06;33.30;90.00
9915;DHT22;4996;48.746;9.174;2023-06-19T12:17:33;33.50;88.30
9915;DHT22;4996;48.746;9.174;2023-06-19T12:19:59;33.70;88.20
9915;DHT22;4996;48.746;9.174;2023-06-19T12:22:24;33.70;87.40
9915;DHT22;4996;48.746;9.174;2023-06-19T12:24:50;34.00;88.20
9915;DHT22;4996;48.746;9.174;2023-06-19T12:27:15;34.20;85.80
9915;DHT22;4996;48.746;9.174;2023-06-19T12:29:41;34.10;85.60
9915;DHT22;4996;48.746;9.174;2023-06-19T12:32:07;33.90;84.50
9915;DHT22;4996;48.746;9.174;2023-06-19T12:34:32;33.90;83.90
9915;DHT22;4996;48.746;9.174;2023-06-19T12:36:58;34.60;82.60
9915;DHT22;4996;48.746;9.174;2023-06-19T12:39:23;35.30;82.50
9915;DHT22;4996;48.746;9.174;2023-06-19T12:41:50;34.60;82.50
9915;DHT22;4996;48.746;9.174;2023-06-19T12:44:15;34.60;82.50
9915;DHT22;4996;48.746;9.174;2023-06-19T12:46:42;34.00;83.90
9915;DHT22;4996;48.746;9.174;2023-06-19T12:49:07;33.80;84.20
9915;DHT22;4996;48.746;9.174;2023-06-19T12:51:34;34.10;83.20
9915;DHT22;4996;48.746;9.174;2023-06-19T12:53:59;34.90;82.50
9915;DHT22;4996;48.746;9.174;2023-06-19T12:56:25;35.90;81.20
9915;DHT22;4996;48.746;9.174;2023-06-19T12:58:51;35.90;80.20
9915;DHT22;4996;48.746;9.174;2023-06-19T13:01:16;35.80;80.70
9915;DHT22;4996;48.746;9.174;2023-06-19T13:03:42;36.30;79.50
9915;DHT22;4996;48.746;9.174;2023-06-19T13:06:07;36.40;78.80
9915;DHT22;4996;48.746;9.174;2023-06-19T13:08:33;35.90;78.20
9915;DHT22;4996;48.746;9.174;2023-06-19T13:10:58;35.50;78.90
9915;DHT22;4996;48.746;9.174;2023-06-19T13:13:24;35.40;79.40
9915;DHT22;4996;48.746;9.174;2023-06-19T13:15:49;34.90;79.00
9915;DHT22;4996;48.746;9.174;2023-06-19T13:18:16;34.20;80.50
9915;DHT22;4996;48.746;9.174;2023-06-19T13:20:42;34.20;79.50
9915;DHT22;4996;48.746;9.174;2023-06-19T13:23:08;34.10;80.80
9915;DHT22;4996;48.746;9.174;2023-06-19T13:25:33;34.10;79.90
9915;DHT22;4996;48.746;9.174;2023-06-19T13:27:59;33.90;80.20
9915;DHT22;4996;48.746;9.174;2023-06-19T13:30:24;34.00;80.40
9915;DHT22;4996;48.746;9.174;2023-06-19T13:32:50;34.10;80.90
9915;DHT22;4996;48.746;9.174;2023-06-19T13:35:15;34.40;80.60
9915;DHT22;4996;48.746;9.174;2023-06-19T13:37:41;34.30;80.20
9915;DHT22;4996;48.746;9.174;2023-06-19T13:40:07;34.50;79.70
9915;DHT22;4996;48.746;9.174;2023-06-19T13:42:33;34.50;79.30
9915;DHT22;4996;48.746;9.174;2023-06-19T13:45:01;34.40;78.50
9915;DHT22;4996;48.746;9.174;2023-06-19T13:47:27;34.50;78.40
9915;DHT22;4996;48.746;9.174;2023-06-19T13:49:53;34.50;78.50
9915;DHT22;4996;48.746;9.174;2023-06-19T13:52:18;34.50;77.90
9915;DHT22;4996;48.746;9.174;2023-06-19T13:54:44;34.20;76.50
9915;DHT22;4996;48.746;9.174;2023-06-19T13:57:09;33.90;78.00
9915;DHT22;4996;48.746;9.174;2023-06-19T13:59:35;33.60;77.60
9915;DHT22;4996;48.746;9.174;2023-06-19T14:02:01;33.40;77.60
9915;DHT22;4996;48.746;9.174;2023-06-19T14:04:27;33.00;77.30
9915;DHT22;4996;48.746;9.174;2023-06-19T14:06:52;32.80;78.90
9915;DHT22;4996;48.746;9.174;2023-06-19T14:09:20;33.00;78.80
9915;DHT22;4996;48.746;9.174;2023-06-19T14:11:45;33.10;79.10
9915;DHT22;4996;48.746;9.174;2023-06-19T14:14:11;33.20;79.00
9915;DHT22;4996;48.746;9.174;2023-06-19T14:16:36;33.00;78.00
9915;DHT22;4996;48.746;9.174;2023-06-19T14:19:02;32.60;78.80
9915;DHT22;4996;48.746;9.174;2023-06-19T14:21:27;32.70;78.40
9915;DHT22;4996;48.746;9.174;2023-06-19T14:23:53;32.80;78.80
9915;DHT22;4996;48.746;9.174;2023-06-19T14:26:18;32.90;78.90
9915;DHT22;4996;48.746;9.174;2023-06-19T14:28:44;33.10;78.20
9915;DHT22;4996;48.746;9.174;2023-06-19T14:31:09;33.10;77.80
9915;DHT22;4996;48.746;9.174;2023-06-19T14:33:35;33.00;78.90
9915;DHT22;4996;48.746;9.174;2023-06-19T14:36:02;32.80;78.90
9915;DHT22;4996;48.746;9.174;2023-06-19T14:38:28;32.90;80.60
9915;DHT22;4996;48.746;9.174;2023-06-19T14:40:57;32.50;80.50
9915;DHT22;4996;48.746;9.174;2023-06-19T14:43:24;32.20;80.40
9915;DHT22;4996;48.746;9.174;2023-06-19T14:45:49;32.40;81.60
9915;DHT22;4996;48.746;9.174;2023-06-19T14:48:15;32.50;80.40
9915;DHT22;4996;48.746;9.174;2023-06-19T14:50:40;32.40;80.20
9915;DHT22;4996;48.746;9.174;2023-06-19T14:53:06;32.50;80.10
9915;DHT22;4996;48.746;9.174;2023-06-19T14:55:32;32.50;80.10
9915;DHT22;4996;48.746;9.174;2023-06-19T14:57:58;32.20;79.40
9915;DHT22;4996;48.746;9.174;2023-06-19T15:00:23;32.10;79.60
9915;DHT22;4996;48.746;9.174;2023-06-19T15:02:49;31.90;79.90
9915;DHT22;4996;48.746;9.174;2023-06-19T15:05:14;31.90;80.10
9915;DHT22;4996;48.746;9.174;2023-06-19T15:07:40;31.70;80.00
9915;DHT22;4996;48.746;9.174;2023-06-19T15:10:05;31.60;80.80
9915;DHT22;4996;48.746;9.174;2023-06-19T15:12:31;31.70;80.40
9915;DHT22;4996;48.746;9.174;2023-06-19T15:14:57;31.90;80.50
9915;DHT22;4996;48.746;9.174;2023-06-19T15:17:23;31.90;80.20
9915;DHT22;4996;48.746;9.174;2023-06-19T15:19:48;32.10;79.60
9915;DHT22;4996;48.746;9.174;2023-06-19T15:22:14;32.20;79.70
9915;DHT22;4996;48.746;9.174;2023-06-19T15:24:39;32.20;79.00
9915;DHT22;4996;48.746;9.174;2023-06-19T15:27:05;32.00;80.60
9915;DHT22;4996;48.746;9.174;2023-06-19T15:29:31;32.10;80.30
9915;DHT22;4996;48.746;9.174;2023-06-19T15:31:56;31.70;80.80
9915;DHT22;4996;48.746;9.174;2023-06-19T15:34:21;31.60;81.20
9915;DHT22;4996;48.746;9.174;2023-06-19T15:36:47;31.40;82.50
9915;DHT22;4996;48.746;9.174;2023-06-19T15:39:12;31.30;84.10
9915;DHT22;4996;48.746;9.174;2023-06-19T15:41:38;31.30;84.10
9915;DHT22;4996;48.746;9.174;2023-06-19T15:44:04;31.40;85.00
9915;DHT22;4996;48.746;9.174;2023-06-19T15:46:29;31.60;84.70
9915;DHT22;4996;48.746;9.174;2023-06-19T15:48:55;31.60;82.40
9915;DHT22;4996;48.746;9.174;2023-06-19T15:51:20;31.70;83.20
9915;DHT22;4996;48.746;9.174;2023-06-19T15:53:46;31.80;82.50
9915;DHT22;4996;48.746;9.174;2023-06-19T15:56:11;31.80;81.30
9915;DHT22;4996;48.746;9.174;2023-06-19T15:58:37;31.80;80.40
9915;DHT22;4996;48.746;9.174;2023-06-19T16:01:03;31.80;80.10